EDT,Max TemperatureF,Mean TemperatureF,Min TemperatureF,Max Dew PointF,MeanDew PointF,Min DewpointF,Max Humidity, Mean Humidity, Min Humidity, Max Sea Level PressureIn, Mean Sea Level PressureIn, Min Sea Level PressureIn, Max VisibilityMiles, Mean VisibilityMiles, Min VisibilityMiles, Max Wind SpeedMPH, Mean Wind SpeedMPH, Max Gust SpeedMPH,PrecipitationIn, CloudCover, Events, WindDirDegrees
2011-10-1,52,46,39,42,38,34,100,78,53,30.20,30.08,29.92,10,9,4,23,16,33,0.02,6,Rain,350
2011-10-2,59,48,37,41,35,28,97,67,33,30.17,30.12,30.04,10,10,10,20,10,28,0.00,3,,337
2011-10-3,64,56,48,49,45,36,87,68,54,30.21,30.12,30.06,10,10,10,16,8,21,0.00,6,Rain,345
2011-10-4,70,58,46,49,44,39,89,66,38,30.28,30.24,30.19,10,10,10,9,4,,0.00,1,,314
2011-10-5,75,58,44,52,46,43,93,72,33,30.30,30.26,30.23,10,10,7,6,1,,0.00,2,,75
2011-10-6,75,62,48,55,50,46,100,85,41,30.35,30.31,30.28,10,4,0,6,1,,0.00,2,Fog,126
2011-10-7,77,62,48,56,50,46,100,82,40,30.41,30.35,30.32,10,4,0,10,1,,0.00,1,Fog,161
2011-10-8,78,64,51,56,52,48,96,71,35,30.41,30.36,30.32,10,7,2,9,3,,0.00,1,Fog,180
2011-10-9,80,64,50,56,51,47,100,76,39,30.41,30.36,30.31,10,6,0,8,1,,0.00,1,Fog,156
2011-10-10,75,63,51,58,51,48,96,76,43,30.32,30.26,30.16,10,6,1,10,1,,0.00,3,,135
2011-10-11,77,62,48,57,50,36,100,82,23,30.16,30.11,30.01,10,4,0,10,1,,0.00,3,Fog,130
2011-10-12,64,58,53,57,54,52,97,87,70,30.01,29.89,29.73,10,6,2,13,4,,0.02,5,Rain,92
2011-10-13,64,60,55,55,55,53,100,85,67,29.72,29.61,29.40,10,6,2,10,2,,0.00,7,,152
2011-10-14,59,54,48,57,50,38,100,83,55,29.51,29.38,29.30,10,7,2,30,10,37,0.19,7,Rain,240
2011-10-15,55,50,44,42,38,34,93,67,47,29.78,29.58,29.48,10,9,3,36,18,46,0.28,6,Rain,268
2011-10-16,59,52,48,43,39,33,74,62,47,29.81,29.73,29.62,10,10,10,21,10,28,0.00,5,Rain,246
2011-10-17,59,50,44,37,33,28,68,54,32,29.78,29.71,29.66,10,10,10,28,12,36,0.00,2,,250
2011-10-18,54,46,39,45,38,34,96,74,47,29.83,29.79,29.75,10,10,7,8,4,,0.03,6,Rain,312
2011-10-19,48,47,46,47,45,42,96,89,86,29.79,29.55,29.21,10,8,3,23,13,32,0.61,8,Rain,32
2011-10-20,48,44,41,48,45,39,100,94,86,29.65,29.23,29.11,10,4,2,22,13,34,0.37,8,Rain,340
2011-10-21,46,44,42,40,38,35,92,80,66,30.07,29.91,29.68,10,9,2,21,13,26,0.00,8,,283
2011-10-22,57,44,32,38,35,30,93,72,42,30.10,30.07,30.04,10,10,8,10,4,,0.00,4,,245
2011-10-23,63,49,35,45,39,33,96,72,46,30.05,29.98,29.89,10,9,6,12,3,,0.00,2,Fog,185
2011-10-24,61,53,44,47,41,28,93,71,31,30.10,29.93,29.82,10,10,5,30,11,40,0.21,4,Rain,260
2011-10-25,57,48,41,48,41,36,86,79,62,30.15,30.03,29.81,10,10,7,16,3,21,0.03,5,Rain,121
2011-10-26,57,50,43,48,44,40,100,88,67,29.88,29.81,29.74,10,7,0,13,7,17,0.03,7,Fog-Rain,353
2011-10-27,46,40,33,39,36,32,93,81,63,30.13,29.94,29.85,10,9,4,15,8,20,0.05,6,Rain,355
2011-10-28,50,38,28,37,30,27,100,86,46,30.21,30.15,30.10,10,5,0,7,1,,0.00,4,Fog,181
2011-10-29,46,39,32,36,34,31,96,80,59,30.12,30.06,30.02,10,9,6,10,2,,0.00,6,Rain,187
2011-10-30,50,38,26,38,30,25,100,83,44,30.22,30.15,30.10,10,5,0,12,1,16,0.01,4,Fog-Rain,176
2011-10-31,51,48,43,40,38,34,89,74,56,30.17,30.08,30.03,10,10,9,9,7,,0.01,7,,169